createdAt,value
2022-12-09T00:01:19.419Z,14.13
2022-12-09T00:03:47.412Z,13.73
2022-12-09T00:06:24.075Z,13.65
2022-12-09T00:08:52.139Z,13.32
2022-12-09T00:11:20.345Z,12.43
2022-12-09T00:13:56.481Z,13.77
2022-12-09T00:16:24.932Z,12.32
2022-12-09T00:18:53.151Z,13.07
2022-12-09T00:21:23.252Z,14.50
2022-12-09T00:23:52.582Z,12.50
2022-12-09T00:26:21.751Z,14.38
2022-12-09T00:28:50.400Z,14.15
2022-12-09T00:31:23.525Z,13.32
2022-12-09T00:33:57.420Z,13.30
2022-12-09T00:36:25.667Z,12.65
2022-12-09T00:38:54.185Z,13.65
2022-12-09T00:41:21.584Z,13.05
2022-12-09T00:43:51.552Z,14.20
2022-12-09T00:46:19.692Z,13.10
2022-12-09T00:48:47.731Z,12.93
2022-12-09T00:51:18.117Z,13.18
2022-12-09T00:53:45.564Z,13.40
2022-12-09T00:56:14.026Z,12.30
2022-12-09T00:58:41.094Z,13.00
2022-12-09T01:01:08.615Z,12.27
2022-12-09T01:03:36.813Z,12.18
2022-12-09T01:06:11.874Z,13.45
2022-12-09T01:08:40.238Z,14.40
2022-12-09T01:11:37.163Z,13.63
2022-12-09T01:14:05.752Z,13.30
2022-12-09T01:16:35.064Z,12.90
2022-12-09T01:19:05.536Z,12.07
2022-12-09T01:21:33.730Z,11.45
2022-12-09T01:24:01.302Z,14.70
2022-12-09T01:26:28.622Z,13.73
2022-12-09T01:28:57.649Z,12.25
2022-12-09T01:31:26.041Z,13.68
2022-12-09T01:33:56.244Z,14.20
2022-12-09T01:36:29.991Z,11.63
2022-12-09T01:38:59.323Z,14.93
2022-12-09T01:41:27.397Z,13.63
2022-12-09T01:44:09.879Z,12.82
2022-12-09T01:46:37.438Z,12.63
2022-12-09T01:49:06.825Z,13.23
2022-12-09T01:51:34.504Z,12.30
2022-12-09T01:54:03.118Z,12.32
2022-12-09T01:56:33.841Z,11.98
2022-12-09T01:59:11.128Z,12.40
2022-12-09T02:01:40.418Z,12.75
2022-12-09T02:04:08.091Z,12.13
2022-12-09T02:06:39.180Z,12.13
2022-12-09T02:09:10.505Z,12.20
2022-12-09T02:11:41.900Z,13.73
2022-12-09T02:14:22.356Z,14.33
2022-12-09T02:17:16.554Z,12.02
2022-12-09T02:20:15.554Z,11.15
2022-12-09T02:23:15.780Z,12.38
2022-12-09T02:25:50.348Z,13.50
2022-12-09T02:28:23.299Z,12.35
2022-12-09T02:31:33.850Z,12.25
2022-12-09T02:34:22.305Z,12.45
2022-12-09T02:37:03.110Z,12.38
2022-12-09T02:39:56.652Z,13.50
2022-12-09T02:42:30.086Z,14.23
2022-12-09T02:45:01.301Z,12.13
2022-12-09T02:47:34.876Z,13.45
2022-12-09T02:50:07.885Z,15.75
2022-12-09T02:52:37.744Z,12.77
2022-12-09T02:55:09.528Z,12.77
2022-12-09T02:57:39.524Z,13.40
2022-12-09T03:00:14.096Z,12.43
2022-12-09T03:02:46.141Z,11.73
2022-12-09T03:05:22.771Z,11.88
2022-12-09T03:08:16.562Z,12.02
2022-12-09T03:11:02.254Z,12.40
2022-12-09T03:13:42.704Z,12.20
2022-12-09T03:16:34.989Z,12.55
2022-12-09T03:19:10.712Z,11.45
2022-12-09T03:21:42.775Z,12.75
2022-12-09T03:24:13.494Z,12.43
2022-12-09T03:26:43.220Z,11.77
2022-12-09T03:29:18.373Z,11.43
2022-12-09T03:31:47.370Z,12.32
2022-12-09T03:34:18.846Z,12.27
2022-12-09T03:36:50.789Z,12.50
2022-12-09T03:39:38.700Z,11.38
2022-12-09T03:42:15.388Z,12.18
2022-12-09T03:44:49.372Z,11.50
2022-12-09T03:47:17.091Z,11.73
2022-12-09T03:49:44.289Z,12.00
2022-12-09T03:52:21.115Z,12.50
2022-12-09T03:54:54.093Z,12.80
2022-12-09T03:57:22.604Z,13.57
2022-12-09T04:00:02.248Z,12.23
2022-12-09T04:02:40.298Z,12.65
2022-12-09T04:05:08.549Z,12.82
2022-12-09T04:07:35.921Z,12.20
2022-12-09T04:10:04.653Z,12.40
2022-12-09T04:12:32.166Z,13.05
2022-12-09T04:14:59.328Z,12.88
2022-12-09T04:17:26.568Z,13.10
2022-12-09T04:19:53.967Z,12.52
2022-12-09T04:22:21.284Z,12.10
2022-12-09T04:24:48.616Z,12.70
2022-12-09T04:27:15.918Z,12.30
2022-12-09T04:29:43.466Z,13.15
2022-12-09T04:32:11.887Z,18.55
2022-12-09T04:34:39.458Z,14.55
2022-12-09T04:37:06.578Z,12.45
2022-12-09T04:39:33.781Z,13.63
2022-12-09T04:42:01.241Z,12.85
2022-12-09T04:44:28.513Z,12.15
2022-12-09T04:46:55.771Z,13.60
2022-12-09T04:49:22.876Z,12.32
2022-12-09T04:51:49.891Z,12.68
2022-12-09T04:54:17.249Z,14.68
2022-12-09T04:56:44.596Z,14.20
2022-12-09T04:59:11.867Z,13.18
2022-12-09T05:01:39.275Z,12.70
2022-12-09T05:04:08.869Z,12.40
2022-12-09T05:09:04.271Z,12.75
2022-12-09T05:11:32.160Z,14.40
2022-12-09T05:13:59.757Z,13.13
2022-12-09T05:16:27.282Z,15.20
2022-12-09T05:18:54.731Z,12.95
2022-12-09T05:21:22.473Z,13.65
2022-12-09T05:23:49.947Z,13.65
2022-12-09T05:26:20.654Z,12.80
2022-12-09T05:28:48.698Z,12.95
2022-12-09T05:31:20.226Z,13.57
2022-12-09T05:33:49.740Z,13.85
2022-12-09T05:36:20.213Z,14.80
2022-12-09T05:38:47.714Z,14.30
2022-12-09T05:41:17.828Z,14.93
2022-12-09T05:43:45.214Z,18.23
2022-12-09T05:46:13.771Z,14.52
2022-12-09T05:48:41.652Z,14.53
2022-12-09T05:51:14.786Z,14.00
2022-12-09T05:53:42.800Z,13.82
2022-12-09T05:56:10.592Z,13.55
2022-12-09T05:58:38.063Z,13.80
2022-12-09T06:01:09.649Z,14.70
2022-12-09T06:03:37.885Z,15.48
2022-12-09T06:06:10.489Z,13.80
2022-12-09T06:08:38.617Z,14.18
2022-12-09T06:11:17.273Z,13.85
2022-12-09T06:13:44.863Z,12.57
2022-12-09T06:16:13.141Z,14.25
2022-12-09T06:18:41.138Z,15.48
2022-12-09T06:21:10.841Z,14.05
2022-12-09T06:23:43.892Z,14.10
2022-12-09T06:26:26.340Z,16.73
2022-12-09T06:28:54.912Z,15.57
2022-12-09T06:31:22.419Z,15.63
2022-12-09T06:33:55.412Z,16.02
2022-12-09T06:36:24.236Z,17.35
2022-12-09T06:38:51.960Z,19.15
2022-12-09T06:41:19.344Z,19.08
2022-12-09T06:43:46.749Z,18.92
2022-12-09T06:46:21.235Z,22.23
2022-12-09T06:48:49.149Z,23.80
2022-12-09T06:51:18.436Z,25.52
2022-12-09T06:53:46.174Z,25.40
2022-12-09T06:56:14.983Z,26.85
2022-12-09T06:58:43.755Z,26.57
2022-12-09T07:01:15.621Z,26.40
2022-12-09T07:03:46.617Z,24.65
2022-12-09T07:06:31.917Z,24.45
2022-12-09T07:09:12.395Z,28.35
2022-12-09T07:11:42.366Z,25.52
2022-12-09T07:14:10.736Z,25.40
2022-12-09T07:16:39.119Z,22.55
2022-12-09T07:19:07.333Z,21.33
2022-12-09T07:21:36.656Z,20.55
2022-12-09T07:24:04.056Z,21.73
2022-12-09T07:26:33.620Z,22.45
2022-12-09T07:29:07.274Z,23.45
2022-12-09T07:31:35.945Z,21.83
2022-12-09T07:34:04.891Z,22.77
2022-12-09T07:36:35.097Z,23.45
2022-12-09T07:39:06.112Z,23.08
2022-12-09T07:41:33.816Z,23.83
2022-12-09T07:44:01.291Z,35.80
2022-12-09T07:46:28.807Z,30.52
2022-12-09T07:48:57.612Z,36.60
2022-12-09T07:51:25.979Z,31.58
2022-12-09T07:53:54.200Z,21.63
2022-12-09T07:56:23.236Z,20.80
2022-12-09T07:58:53.459Z,41.20
2022-12-09T08:01:24.584Z,36.50
2022-12-09T08:03:53.442Z,40.92
2022-12-09T08:06:24.944Z,30.20
2022-12-09T08:08:53.183Z,29.63
2022-12-09T08:11:27.308Z,26.47
2022-12-09T08:13:57.780Z,27.23
2022-12-09T08:16:25.849Z,30.38
2022-12-09T08:18:54.619Z,32.20
2022-12-09T08:21:27.692Z,33.03
2022-12-09T08:23:57.553Z,30.40
2022-12-09T08:26:27.882Z,27.23
2022-12-09T08:28:55.652Z,24.02
2022-12-09T08:31:25.022Z,21.02
2022-12-09T08:33:53.996Z,22.42
2022-12-09T08:36:25.576Z,27.10
2022-12-09T08:38:53.085Z,19.75
2022-12-09T08:41:38.678Z,18.80
2022-12-09T08:44:12.162Z,18.77
2022-12-09T08:46:41.147Z,17.30
2022-12-09T08:49:09.174Z,21.58
2022-12-09T08:51:36.971Z,24.58
2022-12-09T08:54:05.244Z,25.20
2022-12-09T08:56:32.931Z,25.77
2022-12-09T08:59:00.457Z,28.92
2022-12-09T09:01:34.915Z,28.73
2022-12-09T09:04:06.126Z,29.10
2022-12-09T09:06:37.348Z,28.27
2022-12-09T09:09:06.822Z,28.75
2022-12-09T09:14:09.356Z,27.55
2022-12-09T09:16:39.996Z,28.92
2022-12-09T09:19:08.096Z,25.15
2022-12-09T09:21:35.898Z,22.67
2022-12-09T09:24:07.927Z,24.42
2022-12-09T09:26:35.122Z,23.90
2022-12-09T09:29:02.188Z,25.33
2022-12-09T09:31:29.661Z,24.85
2022-12-09T09:33:56.950Z,21.80
2022-12-09T09:36:25.269Z,21.95
2022-12-09T09:38:55.221Z,19.80
2022-12-09T09:43:50.565Z,15.10
2022-12-09T09:46:32.575Z,15.80
2022-12-09T09:49:01.548Z,14.73
2022-12-09T09:51:29.884Z,13.15
2022-12-09T09:53:57.722Z,13.60
2022-12-09T09:56:35.413Z,14.40
2022-12-09T09:59:15.981Z,15.32
2022-12-09T10:01:50.746Z,14.95
2022-12-09T10:04:38.727Z,12.88
2022-12-09T10:07:12.587Z,14.07
2022-12-09T10:09:50.042Z,13.50
2022-12-09T10:12:24.691Z,13.60
2022-12-09T10:15:05.219Z,12.82
2022-12-09T10:17:36.413Z,11.73
2022-12-09T10:20:23.471Z,12.48
2022-12-09T10:22:53.119Z,15.82
2022-12-09T10:25:25.037Z,17.63
2022-12-09T10:28:01.670Z,18.52
2022-12-09T10:30:35.303Z,17.77
2022-12-09T10:33:04.861Z,19.33
2022-12-09T10:35:33.015Z,21.77
2022-12-09T10:38:14.796Z,18.73
2022-12-09T10:40:49.999Z,17.05
2022-12-09T10:43:35.216Z,17.58
2022-12-09T10:46:22.405Z,16.77
2022-12-09T10:48:50.497Z,18.25
2022-12-09T10:51:29.265Z,18.95
2022-12-09T10:56:30.292Z,18.77
2022-12-09T10:59:22.545Z,19.65
2022-12-09T11:01:59.695Z,17.52
2022-12-09T11:04:31.978Z,17.40
2022-12-09T11:07:05.408Z,17.10
2022-12-09T11:09:36.546Z,17.83
2022-12-09T11:12:16.797Z,17.42
2022-12-09T11:14:54.055Z,18.52
2022-12-09T11:17:36.250Z,19.67
2022-12-09T11:20:07.886Z,18.98
2022-12-09T11:22:46.007Z,17.75
2022-12-09T11:25:13.939Z,18.98
2022-12-09T11:27:56.306Z,17.33
2022-12-09T11:30:47.120Z,18.88
2022-12-09T11:33:33.357Z,20.40
2022-12-09T11:36:03.605Z,21.00
2022-12-09T11:38:31.102Z,18.90
2022-12-09T11:41:07.180Z,20.55
2022-12-09T11:43:44.432Z,20.17
2022-12-09T11:46:14.428Z,22.42
2022-12-09T11:49:03.992Z,19.02
2022-12-09T11:51:37.833Z,20.45
2022-12-09T11:54:10.666Z,20.65
2022-12-09T11:56:41.045Z,19.45
2022-12-09T11:59:18.034Z,21.63
2022-12-09T12:02:06.752Z,19.90
2022-12-09T12:04:41.758Z,19.67
2022-12-09T12:07:18.195Z,20.85
2022-12-09T12:09:54.283Z,17.92
2022-12-09T12:12:47.153Z,16.65
2022-12-09T12:15:21.776Z,17.42
2022-12-09T12:17:53.423Z,17.13
2022-12-09T12:20:25.919Z,15.68
2022-12-09T12:23:18.269Z,15.18
2022-12-09T12:26:03.761Z,16.80
2022-12-09T12:28:55.322Z,17.98
2022-12-09T12:32:08.283Z,16.75
2022-12-09T12:34:47.389Z,16.75
2022-12-09T12:37:35.764Z,17.88
2022-12-09T12:40:26.375Z,18.85
2022-12-09T12:44:03.654Z,18.35
2022-12-09T12:46:30.689Z,18.00
2022-12-09T12:49:22.307Z,20.33
2022-12-09T12:51:58.323Z,16.90
2022-12-09T12:54:49.722Z,21.48
2022-12-09T12:57:34.280Z,20.13
2022-12-09T13:00:19.420Z,18.80
2022-12-09T13:03:14.278Z,16.77
2022-12-09T13:05:45.234Z,20.73
2022-12-09T13:08:27.152Z,17.73
2022-12-09T13:10:57.873Z,17.95
2022-12-09T13:13:42.567Z,15.88
2022-12-09T13:16:26.262Z,16.38
2022-12-09T13:18:54.199Z,15.27
2022-12-09T13:21:22.196Z,13.98
2022-12-09T13:24:21.726Z,14.10
2022-12-09T13:26:57.792Z,14.27
2022-12-09T13:29:30.892Z,13.85
2022-12-09T13:32:12.392Z,14.32
2022-12-09T13:34:44.565Z,13.43
2022-12-09T13:37:30.340Z,14.52
2022-12-09T13:39:58.325Z,13.95
2022-12-09T13:42:47.075Z,13.55
2022-12-09T13:45:31.612Z,12.80
2022-12-09T13:48:10.614Z,15.25
2022-12-09T13:50:45.004Z,14.02
2022-12-09T13:53:21.239Z,14.20
2022-12-09T13:55:59.946Z,12.90
2022-12-09T13:58:26.970Z,14.18
2022-12-09T14:01:05.329Z,13.45
2022-12-09T14:04:04.653Z,15.68
2022-12-09T14:09:40.349Z,13.05
2022-12-09T14:12:14.113Z,13.65
2022-12-09T14:14:44.234Z,14.10
2022-12-09T14:17:19.923Z,13.27
2022-12-09T14:19:56.461Z,13.10
2022-12-09T14:22:23.545Z,15.48
2022-12-09T14:24:58.945Z,13.05
2022-12-09T14:27:28.440Z,13.77
2022-12-09T14:30:04.809Z,13.50
2022-12-09T14:32:36.828Z,13.35
2022-12-09T14:35:24.206Z,14.15
2022-12-09T14:38:06.669Z,15.23
2022-12-09T14:40:42.990Z,13.02
2022-12-09T14:43:32.257Z,14.45
2022-12-09T14:46:02.663Z,13.85
2022-12-09T14:48:34.399Z,15.07
2022-12-09T14:51:24.928Z,12.75
2022-12-09T14:54:06.174Z,14.25
2022-12-09T14:56:34.599Z,14.90
2022-12-09T14:59:09.919Z,20.63
2022-12-09T15:01:51.964Z,16.08
2022-12-09T15:04:37.062Z,16.50
2022-12-09T15:07:25.399Z,15.48
2022-12-09T15:09:58.574Z,15.07
2022-12-09T15:12:36.274Z,14.82
2022-12-09T15:15:15.589Z,16.30
2022-12-09T15:17:53.997Z,15.52
2022-12-09T15:20:24.115Z,15.43
2022-12-09T15:22:53.900Z,14.57
2022-12-09T15:25:22.752Z,14.77
2022-12-09T15:28:26.313Z,20.67
2022-12-09T15:31:15.507Z,17.92
2022-12-09T15:33:46.639Z,17.17
2022-12-09T15:36:27.384Z,14.75
2022-12-09T15:39:03.471Z,34.20
2022-12-09T15:42:05.841Z,19.95
2022-12-09T15:44:45.003Z,21.58
2022-12-09T15:47:20.720Z,18.17
2022-12-09T15:50:04.549Z,14.48
2022-12-09T15:52:38.034Z,13.85
2022-12-09T15:55:10.176Z,15.38
2022-12-09T15:57:37.773Z,14.68
2022-12-09T16:00:06.575Z,17.17
2022-12-09T16:02:38.334Z,16.75
2022-12-09T16:05:07.923Z,15.52
2022-12-09T16:10:17.853Z,14.10
2022-12-09T16:12:44.831Z,13.50
2022-12-09T16:15:14.074Z,14.35
2022-12-09T16:17:54.273Z,13.75
2022-12-09T16:20:34.841Z,11.77
2022-12-09T16:23:03.476Z,11.35
2022-12-09T16:25:40.635Z,13.40
2022-12-09T16:28:07.648Z,12.32
2022-12-09T16:30:46.178Z,14.07
2022-12-09T16:33:21.046Z,11.82
2022-12-09T16:36:04.515Z,11.18
2022-12-09T16:38:34.716Z,38.22
2022-12-09T16:41:05.722Z,33.38
2022-12-09T16:43:34.076Z,14.23
2022-12-09T16:46:02.790Z,13.75
2022-12-09T16:48:30.704Z,14.25
2022-12-09T16:51:10.946Z,14.45
2022-12-09T16:53:51.177Z,14.68
2022-12-09T16:56:24.973Z,20.02
2022-12-09T16:58:53.729Z,16.75
2022-12-09T17:01:25.669Z,21.13
2022-12-09T17:03:58.045Z,14.15
2022-12-09T17:06:25.347Z,10.32
2022-12-09T17:08:52.454Z,13.90
2022-12-09T17:11:21.784Z,17.23
2022-12-09T17:13:49.669Z,12.10
2022-12-09T17:16:17.817Z,15.65
2022-12-09T17:18:44.811Z,14.35
2022-12-09T17:21:14.431Z,17.75
2022-12-09T17:23:42.424Z,13.77
2022-12-09T17:26:12.677Z,16.27
2022-12-09T17:28:40.643Z,13.38
2022-12-09T17:31:13.195Z,15.57
2022-12-09T17:33:40.193Z,15.20
2022-12-09T17:36:07.828Z,14.25
2022-12-09T17:38:35.180Z,14.82
2022-12-09T17:41:07.634Z,14.18
2022-12-09T17:43:34.994Z,14.82
2022-12-09T17:46:03.799Z,13.65
2022-12-09T17:48:32.136Z,17.05
2022-12-09T17:50:59.711Z,14.52
2022-12-09T17:53:26.878Z,14.75
2022-12-09T17:55:53.830Z,13.30
2022-12-09T17:58:20.914Z,14.48
2022-12-09T18:00:53.584Z,16.95
2022-12-09T18:03:39.351Z,16.55
2022-12-09T18:06:09.087Z,15.07
2022-12-09T18:08:37.593Z,14.23
2022-12-09T18:11:06.558Z,15.40
2022-12-09T18:13:34.261Z,15.65
2022-12-09T18:16:01.503Z,13.68
2022-12-09T18:18:29.118Z,12.98
2022-12-09T18:21:00.355Z,13.55
2022-12-09T18:23:28.332Z,13.65
2022-12-09T18:25:56.258Z,15.82
2022-12-09T18:28:27.545Z,14.05
2022-12-09T18:30:55.157Z,13.02
2022-12-09T18:33:23.769Z,14.68
2022-12-09T18:35:52.142Z,14.18
2022-12-09T18:38:19.103Z,13.10
2022-12-09T18:41:01.325Z,12.52
2022-12-09T18:43:33.748Z,15.52
2022-12-09T18:46:06.019Z,11.52
2022-12-09T18:48:33.729Z,11.98
2022-12-09T18:51:00.914Z,13.80
2022-12-09T18:53:27.896Z,14.63
2022-12-09T18:55:55.679Z,12.48
2022-12-09T18:58:36.827Z,13.00
2022-12-09T19:01:25.615Z,16.13
2022-12-09T19:03:54.829Z,14.00
2022-12-09T19:06:28.224Z,14.25
2022-12-09T19:09:20.332Z,14.90
2022-12-09T19:11:51.479Z,15.15
2022-12-09T19:14:22.273Z,15.10
2022-12-09T19:16:49.701Z,18.60
2022-12-09T19:19:22.921Z,15.57
2022-12-09T19:21:50.429Z,15.27
2022-12-09T19:24:30.375Z,18.63
2022-12-09T19:26:58.331Z,17.95
2022-12-09T19:29:26.616Z,17.55
2022-12-09T19:31:54.641Z,16.77
2022-12-09T19:34:25.071Z,17.77
2022-12-09T19:36:54.208Z,17.42
2022-12-09T19:39:23.792Z,16.15
2022-12-09T19:44:44.389Z,13.30
2022-12-09T19:47:12.325Z,14.15
2022-12-09T19:49:41.444Z,14.93
2022-12-09T19:52:08.358Z,13.82
2022-12-09T19:54:35.477Z,14.77
2022-12-09T19:57:02.552Z,13.68
2022-12-09T19:59:29.784Z,14.43
2022-12-09T20:01:56.923Z,14.27
2022-12-09T20:04:48.020Z,13.93
2022-12-09T20:07:12.636Z,13.98
2022-12-09T20:09:39.921Z,12.95
2022-12-09T20:12:07.038Z,13.52
2022-12-09T20:14:34.184Z,13.10
2022-12-09T20:17:01.266Z,15.30
2022-12-09T20:19:28.411Z,14.25
2022-12-09T20:21:55.567Z,12.23
2022-12-09T20:24:22.637Z,12.52
2022-12-09T20:26:49.692Z,13.32
2022-12-09T20:29:16.649Z,14.63
2022-12-09T20:31:43.888Z,11.93
2022-12-09T20:34:14.000Z,13.35
2022-12-09T20:36:42.906Z,13.43
2022-12-09T20:39:19.669Z,12.75
2022-12-09T20:41:47.654Z,13.40
2022-12-09T20:44:15.540Z,11.07
2022-12-09T20:46:49.606Z,12.35
2022-12-09T20:49:17.459Z,10.32
2022-12-09T20:51:45.491Z,11.38
2022-12-09T20:54:13.350Z,11.40
2022-12-09T20:56:41.132Z,11.35
2022-12-09T20:59:10.123Z,12.27
2022-12-09T21:01:37.467Z,12.02
2022-12-09T21:04:06.436Z,12.57
2022-12-09T21:06:38.319Z,13.50
2022-12-09T21:09:09.111Z,11.80
2022-12-09T21:11:37.212Z,12.55
2022-12-09T21:14:06.862Z,11.55
2022-12-09T21:19:06.093Z,11.48
2022-12-09T21:21:36.061Z,11.32
2022-12-09T21:24:04.045Z,11.73
2022-12-09T21:26:31.565Z,13.27
2022-12-09T21:29:00.879Z,14.57
2022-12-09T21:31:31.159Z,13.18
2022-12-09T21:34:04.507Z,10.70
2022-12-09T21:36:34.732Z,10.25
2022-12-09T21:39:02.039Z,8.93
2022-12-09T21:41:31.771Z,10.85
2022-12-09T21:43:59.527Z,10.25
2022-12-09T21:46:32.125Z,10.10
2022-12-09T21:49:03.948Z,10.10
2022-12-09T21:51:32.666Z,10.77
2022-12-09T21:54:02.359Z,13.50
2022-12-09T21:56:32.931Z,11.50
2022-12-09T21:59:00.585Z,13.60
2022-12-09T22:01:39.326Z,11.55
2022-12-09T22:04:09.948Z,11.00
2022-12-09T22:06:37.972Z,11.40
2022-12-09T22:09:07.122Z,11.30
2022-12-09T22:11:36.962Z,11.38
2022-12-09T22:14:06.063Z,10.10
2022-12-09T22:16:42.329Z,9.98
2022-12-09T22:19:13.741Z,20.20
2022-12-09T22:21:40.828Z,12.02
2022-12-09T22:24:09.340Z,10.95
2022-12-09T22:26:36.796Z,10.70
2022-12-09T22:29:05.729Z,11.77
2022-12-09T22:31:36.791Z,10.43
2022-12-09T22:34:18.778Z,11.75
2022-12-09T22:36:47.582Z,10.73
2022-12-09T22:39:21.087Z,10.93
2022-12-09T22:41:48.179Z,11.93
2022-12-09T22:44:18.172Z,10.15
2022-12-09T22:46:46.764Z,9.57
2022-12-09T22:49:15.537Z,10.02
2022-12-09T22:51:43.645Z,10.68
2022-12-09T22:54:11.049Z,9.68
2022-12-09T22:56:40.765Z,10.20
2022-12-09T22:59:08.393Z,9.43
2022-12-09T23:01:37.340Z,9.07
2022-12-09T23:04:06.238Z,9.90
2022-12-09T23:06:35.869Z,9.48
2022-12-09T23:09:03.730Z,9.68
2022-12-09T23:11:30.752Z,9.70
2022-12-09T23:13:59.713Z,25.75
2022-12-09T23:16:27.401Z,14.45
2022-12-09T23:18:56.426Z,8.88
2022-12-09T23:21:27.053Z,10.40
2022-12-09T23:24:00.905Z,9.55
2022-12-09T23:26:30.542Z,9.02
2022-12-09T23:29:01.091Z,9.98
2022-12-09T23:31:31.462Z,10.85
2022-12-09T23:34:00.094Z,10.02
2022-12-09T23:36:36.045Z,10.18
2022-12-09T23:39:05.463Z,10.55
2022-12-09T23:41:32.467Z,10.52
2022-12-09T23:43:59.507Z,9.35
2022-12-09T23:46:45.601Z,10.07
2022-12-09T23:49:12.966Z,9.38
2022-12-09T23:51:43.859Z,10.13
2022-12-09T23:54:14.626Z,9.52
2022-12-09T23:56:44.197Z,9.68
